Terminal Aerodrome Forecast
Issued by NWS Wakefield, VA

Home | Current Version | Previous Version | Text Only | Print | Product List | Glossary On
Versions: 1 2 3 4 5 6 7 8 9 10 11 12 13 14 15 16 17 18
000
FTUS41 KAKQ 051139
TAFORF
TAF
KORF 051139Z 0512/0612 06011G18KT P6SM BKN025 OVC070
      TEMPO 0512/0514 4SM BR BKN015 OVC025
     FM051600 06015G23KT P6SM SCT020 BKN045
     FM060200 06008KT P6SM BKN025 OVC040=

USA.gov is the U.S. government's official web portal to all federal, state and local government web resources and services.